Time;durP1;ratioP1;P1;durP2;ratioP2;P2;SDS_P1;SDS_P2;PMS_P1;PMS_P2;Temp;Humidity;BMP_temperature;BMP_pressure;BME280_temperature;BME280_humidity;BME280_pressure;Samples;Min_cycle;Max_cycle;Signal;HPM_P1;HPM_P2
2023/12/20 00:01:49;;;;;;;7.80;2.10;;;;;;;;;;6048712;29;20309;-69
2023/12/20 00:04:53;;;;;;;7.03;1.80;;;;;;;;;;6048104;29;20300;-69
2023/12/20 00:07:57;;;;;;;7.30;1.83;;;;;;;;;;6047542;29;20291;-69
2023/12/20 00:11:01;;;;;;;6.63;1.70;;;;;;;;;;6058243;29;20296;-70
2023/12/20 00:14:05;;;;;;;12.97;2.10;;;;;;;;;;6070064;29;20482;-69
2023/12/20 00:17:10;;;;;;;11.27;1.93;;;;;;;;;;6071182;29;20292;-69
2023/12/20 00:20:14;;;;;;;8.10;1.90;;;;;;;;;;6070893;29;20303;-69
2023/12/20 00:23:19;;;;;;;6.33;1.97;;;;;;;;;;6070219;29;20292;-69
2023/12/20 00:26:23;;;;;;;9.60;2.27;;;;;;;;;;6071246;29;20295;-69
2023/12/20 00:29:27;;;;;;;7.07;1.67;;;;;;;;;;6070193;29;20299;-69
2023/12/20 00:32:32;;;;;;;4.83;1.60;;;;;;;;;;6070396;29;20307;-69
2023/12/20 00:35:36;;;;;;;6.60;1.80;;;;;;;;;;6070546;29;20303;-69
2023/12/20 00:38:40;;;;;;;9.20;1.97;;;;;;;;;;6069187;29;20632;-69
2023/12/20 00:41:44;;;;;;;5.63;1.97;;;;;;;;;;6070754;29;20298;-68
2023/12/20 00:44:48;;;;;;;3.13;1.40;;;;;;;;;;6069948;29;20308;-69
2023/12/20 00:47:53;;;;;;;11.20;2.00;;;;;;;;;;6070277;29;20316;-69
2023/12/20 00:50:57;;;;;;;8.80;1.77;;;;;;;;;;6070255;29;20300;-69
2023/12/20 00:54:01;;;;;;;7.10;1.90;;;;;;;;;;6069939;29;20308;-69
2023/12/20 00:57:05;;;;;;;7.83;2.03;;;;;;;;;;6070468;29;20300;-70
2023/12/20 01:00:11;;;;;;;8.87;2.37;;;;;;;;;;6070075;29;20300;-69
2023/12/20 01:03:18;;;;;;;6.60;2.10;;;;;;;;;;6069532;29;20291;-69
2023/12/20 01:06:22;;;;;;;6.13;1.50;;;;;;;;;;6070577;29;20302;-69
2023/12/20 01:09:27;;;;;;;7.07;2.20;;;;;;;;;;6069578;29;20307;-70
2023/12/20 01:12:33;;;;;;;8.80;1.80;;;;;;;;;;6048166;29;20292;-69
2023/12/20 01:15:37;;;;;;;9.43;2.33;;;;;;;;;;6046315;29;20308;-69
2023/12/20 01:18:42;;;;;;;2.70;1.50;;;;;;;;;;6065941;29;20303;-68
2023/12/20 01:21:46;;;;;;;7.43;1.70;;;;;;;;;;6068668;29;20301;-68
2023/12/20 01:24:51;;;;;;;6.73;1.70;;;;;;;;;;6069276;29;20304;-68
2023/12/20 01:27:55;;;;;;;8.00;2.13;;;;;;;;;;6069606;29;20294;-69
2023/12/20 01:31:00;;;;;;;6.97;1.77;;;;;;;;;;6068772;29;20315;-69
2023/12/20 01:34:06;;;;;;;9.30;1.90;;;;;;;;;;6068186;29;20308;-70
2023/12/20 01:37:10;;;;;;;11.50;1.90;;;;;;;;;;6066593;29;20300;-69
2023/12/20 01:40:14;;;;;;;9.50;2.27;;;;;;;;;;6046309;29;20312;-69
2023/12/20 01:43:18;;;;;;;7.47;1.97;;;;;;;;;;6045341;29;20340;-69
2023/12/20 01:46:22;;;;;;;6.40;2.00;;;;;;;;;;6046600;29;20299;-69
2023/12/20 01:49:28;;;;;;;11.17;1.80;;;;;;;;;;6045768;29;20327;-69
2023/12/20 01:52:33;;;;;;;7.07;1.90;;;;;;;;;;6046257;29;20320;-69
2023/12/20 01:55:40;;;;;;;7.47;1.90;;;;;;;;;;6045848;29;20308;-69
2023/12/20 01:58:45;;;;;;;5.00;1.63;;;;;;;;;;6045157;29;20377;-70
2023/12/20 02:01:50;;;;;;;11.20;2.10;;;;;;;;;;6044887;29;20387;-70
2023/12/20 02:04:55;;;;;;;10.27;2.07;;;;;;;;;;6045622;29;20305;-69
2023/12/20 02:07:59;;;;;;;5.80;1.73;;;;;;;;;;6044818;29;20296;-70
2023/12/20 02:11:05;;;;;;;11.43;2.30;;;;;;;;;;6056398;29;20200;-69
2023/12/20 02:14:09;;;;;;;14.17;2.33;;;;;;;;;;6068429;29;20294;-69
2023/12/20 02:17:14;;;;;;;8.23;2.00;;;;;;;;;;6068604;29;20312;-69
2023/12/20 02:20:19;;;;;;;8.27;2.30;;;;;;;;;;6067957;29;20307;-69
2023/12/20 02:23:24;;;;;;;7.80;2.07;;;;;;;;;;6067975;29;20307;-69
2023/12/20 02:26:29;;;;;;;12.43;2.53;;;;;;;;;;6068636;29;20295;-69
2023/12/20 02:29:34;;;;;;;9.80;2.70;;;;;;;;;;6067840;29;20570;-69
2023/12/20 02:32:37;;;;;;;7.43;2.27;;;;;;;;;;6068298;29;20497;-70
2023/12/20 02:35:41;;;;;;;7.03;1.90;;;;;;;;;;6068212;29;20293;-69
2023/12/20 02:38:47;;;;;;;6.73;2.00;;;;;;;;;;6068022;29;20569;-69
2023/12/20 02:41:51;;;;;;;8.03;1.83;;;;;;;;;;6068547;29;20296;-69
2023/12/20 02:44:55;;;;;;;7.20;1.90;;;;;;;;;;6067958;29;20297;-69
2023/12/20 02:47:59;;;;;;;8.20;2.10;;;;;;;;;;6068073;29;20311;-70
2023/12/20 02:51:04;;;;;;;9.90;2.13;;;;;;;;;;6068230;29;20299;-69
2023/12/20 02:54:11;;;;;;;4.20;1.87;;;;;;;;;;6068800;29;20298;-69
2023/12/20 02:57:15;;;;;;;5.20;1.93;;;;;;;;;;6073157;29;20307;-69
2023/12/20 03:00:19;;;;;;;9.03;2.10;;;;;;;;;;6072280;29;20317;-69
2023/12/20 03:03:23;;;;;;;5.50;1.93;;;;;;;;;;6072305;29;20303;-69
2023/12/20 03:06:27;;;;;;;10.17;1.93;;;;;;;;;;6072818;29;20327;-69
2023/12/20 03:09:32;;;;;;;9.50;2.00;;;;;;;;;;6072211;29;20311;-69
2023/12/20 03:12:56;;;;;;;4.63;1.77;;;;;;;;;;6049883;29;20305;-69
2023/12/20 03:16:00;;;;;;;6.07;1.80;;;;;;;;;;6048768;29;20324;-69
2023/12/20 03:19:04;;;;;;;5.27;1.83;;;;;;;;;;6071389;29;20307;-69
2023/12/20 03:22:08;;;;;;;8.57;1.83;;;;;;;;;;6072875;29;20299;-69
2023/12/20 03:25:13;;;;;;;6.37;1.97;;;;;;;;;;6071871;29;20595;-69
2023/12/20 03:28:17;;;;;;;12.90;1.80;;;;;;;;;;6072117;29;20304;-69
2023/12/20 03:31:21;;;;;;;10.83;1.83;;;;;;;;;;6072223;29;20298;-69
2023/12/20 03:34:26;;;;;;;5.40;1.80;;;;;;;;;;6060769;29;20307;-70
2023/12/20 03:37:29;;;;;;;6.93;1.70;;;;;;;;;;6049219;29;20299;-69
2023/12/20 03:40:35;;;;;;;7.33;2.17;;;;;;;;;;6048666;29;20304;-69
2023/12/20 03:43:38;;;;;;;14.77;1.67;;;;;;;;;;6048505;29;20292;-69
2023/12/20 03:46:42;;;;;;;3.33;1.73;;;;;;;;;;6049103;29;20483;-69
2023/12/20 03:49:46;;;;;;;4.93;1.43;;;;;;;;;;6048195;29;20305;-70
2023/12/20 03:52:50;;;;;;;6.63;1.57;;;;;;;;;;6048852;29;20306;-69
2023/12/20 03:55:55;;;;;;;6.33;1.93;;;;;;;;;;6060434;29;20485;-69
2023/12/20 03:58:59;;;;;;;6.03;1.87;;;;;;;;;;6047166;29;20300;-69
2023/12/20 04:02:04;;;;;;;6.90;2.10;;;;;;;;;;6052599;29;20271;-69
2023/12/20 04:05:09;;;;;;;3.93;1.83;;;;;;;;;;6060723;29;20299;-69
2023/12/20 04:08:14;;;;;;;7.87;2.00;;;;;;;;;;6049030;29;20607;-69
2023/12/20 04:11:20;;;;;;;5.03;2.00;;;;;;;;;;6061169;29;20304;-69
2023/12/20 04:14:24;;;;;;;2.83;1.77;;;;;;;;;;6070618;29;20291;-69
2023/12/20 04:17:28;;;;;;;6.23;1.90;;;;;;;;;;6070998;29;20303;-69
2023/12/20 04:20:32;;;;;;;5.73;2.00;;;;;;;;;;6052823;29;20315;-69
2023/12/20 04:23:36;;;;;;;6.40;1.83;;;;;;;;;;6047663;29;20299;-69
2023/12/20 04:26:41;;;;;;;7.80;2.87;;;;;;;;;;6048114;29;20490;-70
2023/12/20 04:29:45;;;;;;;6.77;2.80;;;;;;;;;;6047236;29;20337;-69
2023/12/20 04:32:49;;;;;;;10.70;2.70;;;;;;;;;;6047719;29;20304;-69
2023/12/20 04:35:53;;;;;;;5.20;2.30;;;;;;;;;;6052966;29;20289;-69
2023/12/20 04:38:57;;;;;;;8.13;2.30;;;;;;;;;;6069510;29;20594;-69
2023/12/20 04:42:02;;;;;;;8.00;2.23;;;;;;;;;;6070831;29;20323;-69
2023/12/20 04:45:07;;;;;;;5.93;2.10;;;;;;;;;;6069841;29;20303;-70
2023/12/20 04:48:12;;;;;;;3.13;2.33;;;;;;;;;;6070504;29;20299;-69
2023/12/20 04:51:15;;;;;;;4.87;2.63;;;;;;;;;;6070545;29;20302;-69
2023/12/20 04:54:19;;;;;;;7.53;2.50;;;;;;;;;;6070034;29;20300;-69
2023/12/20 04:57:24;;;;;;;5.63;2.60;;;;;;;;;;6070683;29;20339;-69
2023/12/20 05:00:30;;;;;;;8.47;2.63;;;;;;;;;;6069787;29;20480;-68
2023/12/20 05:03:34;;;;;;;4.53;3.00;;;;;;;;;;6070045;29;20300;-69
2023/12/20 05:06:38;;;;;;;6.30;2.90;;;;;;;;;;6047190;29;20304;-69
2023/12/20 05:09:42;;;;;;;7.90;3.00;;;;;;;;;;6049129;29;20317;-69
2023/12/20 05:12:48;;;;;;;5.90;2.90;;;;;;;;;;6068654;29;20561;-69
2023/12/20 05:15:52;;;;;;;6.07;3.03;;;;;;;;;;6069950;29;20320;-69
2023/12/20 05:18:56;;;;;;;6.10;2.73;;;;;;;;;;6068641;29;20311;-69
2023/12/20 05:21:59;;;;;;;7.90;3.07;;;;;;;;;;6070276;29;20308;-69
2023/12/20 05:25:04;;;;;;;8.03;3.40;;;;;;;;;;6069491;29;20299;-70
2023/12/20 05:28:09;;;;;;;5.03;3.27;;;;;;;;;;6069791;29;20402;-69
2023/12/20 05:31:13;;;;;;;7.17;3.87;;;;;;;;;;6069531;29;20300;-69
2023/12/20 05:34:17;;;;;;;9.03;3.47;;;;;;;;;;6069165;29;20574;-69
2023/12/20 05:37:21;;;;;;;5.23;3.07;;;;;;;;;;6069660;29;20294;-69
2023/12/20 05:40:25;;;;;;;7.57;3.03;;;;;;;;;;6068807;29;20566;-69
2023/12/20 05:43:31;;;;;;;8.70;3.80;;;;;;;;;;6069167;29;20323;-70
2023/12/20 05:46:34;;;;;;;5.20;3.53;;;;;;;;;;6068517;29;20540;-70
2023/12/20 05:49:38;;;;;;;4.23;3.00;;;;;;;;;;6067517;29;20474;-70
2023/12/20 05:52:42;;;;;;;4.93;2.80;;;;;;;;;;6069006;29;20305;-70
2023/12/20 05:55:46;;;;;;;7.37;2.87;;;;;;;;;;6068894;29;20332;-69
2023/12/20 05:58:51;;;;;;;4.83;3.03;;;;;;;;;;6068591;29;20303;-69
2023/12/20 06:01:55;;;;;;;6.23;3.10;;;;;;;;;;6069050;29;20367;-69
2023/12/20 06:04:59;;;;;;;6.83;3.27;;;;;;;;;;6067678;29;20292;-69
2023/12/20 06:08:04;;;;;;;6.40;3.70;;;;;;;;;;6068281;29;20300;-68
2023/12/20 06:11:07;;;;;;;6.63;2.97;;;;;;;;;;6055208;29;20271;-68
2023/12/20 06:14:13;;;;;;;7.30;3.23;;;;;;;;;;6045688;29;20307;-68
2023/12/20 06:17:17;;;;;;;7.00;3.60;;;;;;;;;;6054668;29;20623;-68
2023/12/20 06:20:21;;;;;;;5.37;3.37;;;;;;;;;;6068225;29;20294;-68
2023/12/20 06:23:25;;;;;;;8.47;3.33;;;;;;;;;;6068574;29;20307;-68
2023/12/20 06:26:28;;;;;;;12.00;3.70;;;;;;;;;;6068883;29;20297;-69
2023/12/20 06:29:34;;;;;;;7.50;3.57;;;;;;;;;;6067793;29;20296;-69
2023/12/20 06:32:39;;;;;;;5.80;3.50;;;;;;;;;;6068372;29;20294;-71
2023/12/20 06:35:43;;;;;;;7.63;4.10;;;;;;;;;;6068441;29;20320;-68
2023/12/20 06:38:47;;;;;;;9.80;4.10;;;;;;;;;;6068518;29;20299;-69
2023/12/20 06:41:51;;;;;;;9.40;4.13;;;;;;;;;;6068333;29;20303;-69
2023/12/20 06:44:56;;;;;;;5.97;3.63;;;;;;;;;;6068082;29;20296;-68
2023/12/20 06:48:00;;;;;;;5.50;3.07;;;;;;;;;;6068337;29;20315;-69
2023/12/20 06:51:04;;;;;;;4.07;2.90;;;;;;;;;;6068389;29;20310;-69
2023/12/20 06:54:08;;;;;;;6.10;3.33;;;;;;;;;;6067813;29;20302;-69
2023/12/20 06:57:12;;;;;;;6.17;3.50;;;;;;;;;;6068335;29;20311;-69
2023/12/20 07:00:20;;;;;;;6.80;3.73;;;;;;;;;;6061098;29;20332;-69
2023/12/20 07:03:24;;;;;;;6.20;3.63;;;;;;;;;;6044450;29;20632;-69
2023/12/20 07:06:28;;;;;;;9.07;3.63;;;;;;;;;;6052826;29;20564;-69
2023/12/20 07:09:32;;;;;;;9.47;4.07;;;;;;;;;;6045122;29;20308;-69
2023/12/20 07:12:36;;;;;;;9.53;4.93;;;;;;;;;;6044991;29;20313;-68
2023/12/20 07:15:42;;;;;;;11.37;4.80;;;;;;;;;;6045359;29;20307;-69
2023/12/20 07:18:47;;;;;;;14.83;5.20;;;;;;;;;;6065076;29;20592;-69
2023/12/20 07:21:51;;;;;;;12.23;4.33;;;;;;;;;;6067867;29;20307;-68
2023/12/20 07:24:55;;;;;;;12.60;5.43;;;;;;;;;;6067502;29;20291;-67
2023/12/20 07:27:59;;;;;;;12.10;4.93;;;;;;;;;;6066799;29;20320;-69
2023/12/20 07:31:04;;;;;;;14.77;5.07;;;;;;;;;;6067836;29;20484;-69
2023/12/20 07:34:09;;;;;;;13.20;4.33;;;;;;;;;;6068027;29;20299;-68
2023/12/20 07:37:13;;;;;;;9.20;4.10;;;;;;;;;;6068060;29;20306;-68
2023/12/20 07:40:17;;;;;;;10.43;3.97;;;;;;;;;;6068568;29;20300;-70
2023/12/20 07:43:21;;;;;;;11.40;3.67;;;;;;;;;;6071735;29;20313;-70
2023/12/20 07:46:27;;;;;;;5.33;3.20;;;;;;;;;;6072074;29;20563;-69
2023/12/20 07:49:31;;;;;;;4.57;3.07;;;;;;;;;;6071678;29;20299;-68
2023/12/20 07:52:35;;;;;;;6.73;3.10;;;;;;;;;;6071444;29;20402;-69
2023/12/20 07:55:41;;;;;;;3.63;2.77;;;;;;;;;;6071885;29;20302;-68
2023/12/20 07:58:45;;;;;;;4.87;2.43;;;;;;;;;;6071686;29;20302;-69
2023/12/20 08:01:57;;;;;;;2.67;2.47;;;;;;;;;;6071521;29;20320;-69
2023/12/20 08:05:01;;;;;;;4.23;2.53;;;;;;;;;;6070334;29;20559;-69
2023/12/20 08:08:06;;;;;;;7.77;3.17;;;;;;;;;;6071471;29;20302;-70
2023/12/20 08:11:11;;;;;;;2.80;2.60;;;;;;;;;;6057868;29;20257;-70
2023/12/20 08:14:15;;;;;;;7.70;2.67;;;;;;;;;;6048197;29;20303;-69
2023/12/20 08:17:21;;;;;;;3.50;2.87;;;;;;;;;;6057098;29;20300;-70
2023/12/20 08:20:24;;;;;;;13.47;3.67;;;;;;;;;;6071321;29;20373;-69
2023/12/20 08:23:42;;;;;;;6.70;3.00;;;;;;;;;;6071018;29;20332;-70
2023/12/20 08:26:47;;;;;;;8.90;3.47;;;;;;;;;;6071407;29;20304;-69
2023/12/20 08:29:50;;;;;;;7.30;3.37;;;;;;;;;;6069672;29;20482;-69
2023/12/20 08:32:56;;;;;;;11.33;3.67;;;;;;;;;;6070348;29;20310;-69
2023/12/20 08:36:00;;;;;;;11.00;3.67;;;;;;;;;;6070997;29;20348;-69
2023/12/20 08:39:07;;;;;;;8.90;3.63;;;;;;;;;;6070373;29;20402;-69
2023/12/20 08:42:11;;;;;;;11.70;3.77;;;;;;;;;;6070743;29;20311;-69
2023/12/20 08:45:15;;;;;;;9.07;3.80;;;;;;;;;;6070322;29;20410;-69
2023/12/20 08:48:20;;;;;;;13.90;4.17;;;;;;;;;;6070633;29;20304;-69
2023/12/20 08:51:25;;;;;;;16.40;3.70;;;;;;;;;;6070454;29;20302;-69
2023/12/20 08:54:29;;;;;;;8.47;3.60;;;;;;;;;;6070690;29;20577;-69
2023/12/20 08:57:33;;;;;;;4.90;3.27;;;;;;;;;;6070481;29;20459;-70
2023/12/20 09:00:38;;;;;;;14.97;3.40;;;;;;;;;;6069472;29;20318;-69
2023/12/20 09:03:44;;;;;;;10.93;3.73;;;;;;;;;;6070355;29;20308;-70
2023/12/20 09:06:48;;;;;;;8.40;3.50;;;;;;;;;;6070472;29;20596;-69
2023/12/20 09:09:52;;;;;;;6.17;3.30;;;;;;;;;;6066219;29;20308;-69
2023/12/20 09:12:57;;;;;;;4.77;3.03;;;;;;;;;;6046951;29;20296;-69
2023/12/20 09:16:01;;;;;;;12.03;3.50;;;;;;;;;;6047088;29;20308;-69
2023/12/20 09:19:06;;;;;;;6.97;3.60;;;;;;;;;;6069404;29;20308;-69
2023/12/20 09:22:10;;;;;;;11.03;4.10;;;;;;;;;;6070068;29;20327;-68
2023/12/20 09:25:15;;;;;;;10.93;4.07;;;;;;;;;;6069570;29;20596;-68
2023/12/20 09:28:20;;;;;;;9.90;4.30;;;;;;;;;;6069619;29;20303;-68
2023/12/20 09:31:24;;;;;;;9.30;3.67;;;;;;;;;;6069643;29;20312;-68
2023/12/20 09:34:30;;;;;;;9.20;4.10;;;;;;;;;;6069533;29;20487;-69
2023/12/20 09:37:34;;;;;;;4.83;3.17;;;;;;;;;;6068858;29;20320;-69
2023/12/20 09:40:42;;;;;;;8.00;3.53;;;;;;;;;;6068798;29;20464;-68
2023/12/20 09:43:46;;;;;;;8.27;3.30;;;;;;;;;;6068796;29;20308;-68
2023/12/20 09:46:51;;;;;;;11.40;3.50;;;;;;;;;;6069462;29;20459;-69
2023/12/20 09:49:57;;;;;;;5.23;2.63;;;;;;;;;;6069204;29;20301;-68
2023/12/20 09:53:04;;;;;;;8.40;2.83;;;;;;;;;;6068061;29;20304;-68
2023/12/20 09:56:08;;;;;;;6.40;3.30;;;;;;;;;;6069340;29;20261;-68
2023/12/20 09:59:12;;;;;;;7.70;3.37;;;;;;;;;;6068808;29;20300;-68
2023/12/20 10:02:18;;;;;;;10.07;2.67;;;;;;;;;;6068102;29;20252;-69
2023/12/20 10:05:28;;;;;;;4.60;3.07;;;;;;;;;;6045308;29;20456;-69
2023/12/20 10:08:32;;;;;;;9.03;3.37;;;;;;;;;;6045634;29;20550;-69
2023/12/20 10:11:37;;;;;;;8.43;3.10;;;;;;;;;;6062966;29;20303;-69
2023/12/20 10:14:41;;;;;;;8.20;3.40;;;;;;;;;;6068444;29;20304;-68
2023/12/20 10:17:45;;;;;;;6.77;3.27;;;;;;;;;;6068116;29;20305;-69
2023/12/20 10:20:50;;;;;;;5.13;3.00;;;;;;;;;;6069209;29;20291;-69
2023/12/20 10:23:55;;;;;;;12.50;4.00;;;;;;;;;;6068683;29;20301;-70
2023/12/20 10:27:06;;;;;;;8.77;3.90;;;;;;;;;;6057335;29;20411;-68
2023/12/20 10:30:11;;;;;;;5.53;3.63;;;;;;;;;;6045392;29;20299;-68
2023/12/20 10:33:17;;;;;;;9.10;3.30;;;;;;;;;;6045556;29;20309;-69
2023/12/20 10:36:26;;;;;;;8.93;3.23;;;;;;;;;;6046040;29;20549;-69
2023/12/20 10:39:30;;;;;;;10.33;3.73;;;;;;;;;;6045420;29;20480;-69
2023/12/20 10:42:35;;;;;;;8.30;3.40;;;;;;;;;;6045277;29;20318;-72
2023/12/20 10:45:39;;;;;;;7.30;3.53;;;;;;;;;;6045613;29;20478;-68
2023/12/20 10:48:44;;;;;;;5.87;3.27;;;;;;;;;;6045308;29;20473;-68
2023/12/20 10:51:51;;;;;;;9.43;2.90;;;;;;;;;;6045794;29;20296;-69
2023/12/20 10:54:55;;;;;;;5.93;2.90;;;;;;;;;;6045371;29;20315;-69
2023/12/20 10:58:02;;;;;;;5.57;3.10;;;;;;;;;;6045416;29;20304;-69
2023/12/20 11:01:07;;;;;;;5.43;2.87;;;;;;;;;;6045641;29;20309;-71
2023/12/20 11:04:19;;;;;;;9.17;2.77;;;;;;;;;;6044574;29;20614;-71
2023/12/20 11:07:29;;;;;;;8.03;2.87;;;;;;;;;;6046158;29;20492;-71
2023/12/20 11:10:41;;;;;;;4.30;2.27;;;;;;;;;;6053495;29;20477;-68
2023/12/20 11:13:49;;;;;;;3.97;2.60;;;;;;;;;;6067706;29;20303;-71
2023/12/20 11:17:07;;;;;;;6.93;2.27;;;;;;;;;;6071302;29;20299;-69
2023/12/20 11:20:12;;;;;;;8.00;2.73;;;;;;;;;;6071991;29;20300;-70
2023/12/20 11:23:17;;;;;;;4.37;2.00;;;;;;;;;;6072059;29;20318;-70
2023/12/20 11:26:24;;;;;;;6.93;2.10;;;;;;;;;;6071868;29;20477;-70
2023/12/20 11:29:35;;;;;;;3.67;1.80;;;;;;;;;;6072418;29;20295;-71
2023/12/20 11:32:39;;;;;;;5.50;2.30;;;;;;;;;;6072220;29;20315;-70
2023/12/20 11:35:43;;;;;;;5.40;2.13;;;;;;;;;;6072739;29;20296;-69
2023/12/20 11:38:59;;;;;;;5.80;2.00;;;;;;;;;;6071965;29;20463;-68
2023/12/20 11:42:07;;;;;;;2.80;2.07;;;;;;;;;;6072311;29;20296;-69
2023/12/20 11:45:14;;;;;;;3.17;1.93;;;;;;;;;;6071935;29;20304;-69
2023/12/20 11:48:18;;;;;;;6.73;2.33;;;;;;;;;;6071785;29;20308;-69
2023/12/20 11:51:22;;;;;;;3.70;2.00;;;;;;;;;;6072214;29;20296;-68
2023/12/20 11:54:31;;;;;;;2.60;1.77;;;;;;;;;;6070712;29;20584;-68
2023/12/20 11:57:35;;;;;;;3.90;1.90;;;;;;;;;;6071675;29;20316;-69
2023/12/20 12:00:39;;;;;;;4.83;1.60;;;;;;;;;;6072088;29;20301;-67
2023/12/20 12:03:43;;;;;;;4.20;1.97;;;;;;;;;;6071362;29;20304;-70
2023/12/20 12:06:47;;;;;;;1.93;1.43;;;;;;;;;;6072009;29;20298;-68
2023/12/20 12:09:53;;;;;;;1.80;1.33;;;;;;;;;;6067805;29;20301;-68
2023/12/20 12:12:57;;;;;;;1.70;1.50;;;;;;;;;;6048413;29;20301;-68
2023/12/20 12:16:01;;;;;;;1.70;1.70;;;;;;;;;;6048519;29;20304;-68
2023/12/20 12:19:05;;;;;;;1.97;1.33;;;;;;;;;;6070298;29;20309;-68
2023/12/20 12:22:12;;;;;;;2.70;1.47;;;;;;;;;;6071765;29;20397;-68
2023/12/20 12:25:20;;;;;;;2.00;1.60;;;;;;;;;;6071263;29;20602;-69
2023/12/20 12:28:29;;;;;;;3.47;1.50;;;;;;;;;;6070616;29;20349;-68
2023/12/20 12:31:33;;;;;;;2.33;1.40;;;;;;;;;;6071319;29;20301;-68
2023/12/20 12:34:37;;;;;;;2.53;1.60;;;;;;;;;;6070756;29;20308;-68
2023/12/20 12:37:42;;;;;;;3.17;1.53;;;;;;;;;;6070576;29;20324;-69
2023/12/20 12:40:47;;;;;;;1.60;1.50;;;;;;;;;;6070643;29;20589;-69
2023/12/20 12:43:52;;;;;;;2.77;1.63;;;;;;;;;;6070273;29;20317;-69
2023/12/20 12:46:58;;;;;;;1.40;1.40;;;;;;;;;;6069297;29;20284;-68
2023/12/20 12:50:02;;;;;;;1.57;1.47;;;;;;;;;;6070649;29;20304;-70
2023/12/20 12:53:07;;;;;;;1.40;1.30;;;;;;;;;;6070199;29;20297;-70
2023/12/20 12:56:14;;;;;;;2.90;1.60;;;;;;;;;;6071113;29;20271;-70
2023/12/20 12:59:17;;;;;;;1.50;1.50;;;;;;;;;;6070109;29;20296;-70
2023/12/20 13:02:21;;;;;;;1.47;1.47;;;;;;;;;;6070401;29;20309;-69
2023/12/20 13:05:25;;;;;;;1.60;1.50;;;;;;;;;;6070326;29;20304;-69
2023/12/20 13:08:30;;;;;;;1.33;1.23;;;;;;;;;;6070023;29;20301;-69
2023/12/20 13:11:35;;;;;;;1.20;1.17;;;;;;;;;;6053793;29;20298;-69
2023/12/20 13:14:40;;;;;;;1.60;1.27;;;;;;;;;;6046926;29;20478;-68
2023/12/20 13:17:46;;;;;;;1.60;1.50;;;;;;;;;;6058977;29;20608;-69
2023/12/20 13:20:51;;;;;;;1.87;1.50;;;;;;;;;;6070544;29;20318;-69
2023/12/20 13:23:55;;;;;;;1.90;1.40;;;;;;;;;;6069354;29;20487;-69
2023/12/20 13:27:00;;;;;;;1.40;1.30;;;;;;;;;;6070086;29;20300;-69
2023/12/20 13:30:05;;;;;;;1.37;1.27;;;;;;;;;;6069579;29;20300;-69
2023/12/20 13:33:09;;;;;;;4.00;1.23;;;;;;;;;;6069253;29;20308;-69
2023/12/20 13:36:14;;;;;;;3.40;1.20;;;;;;;;;;6070107;29;20295;-68
2023/12/20 13:39:17;;;;;;;2.60;1.47;;;;;;;;;;6068912;29;20304;-69
2023/12/20 13:42:23;;;;;;;2.23;1.30;;;;;;;;;;6069826;29;20296;-69
2023/12/20 13:45:27;;;;;;;3.07;1.70;;;;;;;;;;6069330;29;20311;-69
2023/12/20 13:48:30;;;;;;;1.90;1.53;;;;;;;;;;6069309;29;20312;-69
2023/12/20 13:51:34;;;;;;;6.77;1.63;;;;;;;;;;6069799;29;20363;-68
2023/12/20 13:54:39;;;;;;;3.10;1.70;;;;;;;;;;6069144;29;20305;-68
2023/12/20 13:57:44;;;;;;;1.60;1.50;;;;;;;;;;6068838;29;20301;-68
2023/12/20 14:00:58;;;;;;;4.23;1.60;;;;;;;;;;6069749;29;20293;-69
2023/12/20 14:04:02;;;;;;;2.63;1.43;;;;;;;;;;6069159;29;20451;-70
2023/12/20 14:07:07;;;;;;;2.17;1.50;;;;;;;;;;6069622;29;20315;-70
2023/12/20 14:10:12;;;;;;;2.10;1.90;;;;;;;;;;6061554;29;20305;-70
2023/12/20 14:13:17;;;;;;;1.97;1.63;;;;;;;;;;6046039;29;20302;-70
2023/12/20 14:16:21;;;;;;;4.40;1.77;;;;;;;;;;6047886;29;20305;-70
2023/12/20 14:19:25;;;;;;;4.00;1.90;;;;;;;;;;6067676;29;20476;-70
2023/12/20 14:22:29;;;;;;;2.63;1.90;;;;;;;;;;6069391;29;20308;-70
2023/12/20 14:25:33;;;;;;;2.13;1.63;;;;;;;;;;6068892;29;20308;-70
2023/12/20 14:28:53;;;;;;;2.33;1.83;;;;;;;;;;6068520;29;20296;-69
2023/12/20 14:31:57;;;;;;;2.10;1.93;;;;;;;;;;6068182;29;20276;-71
2023/12/20 14:35:01;;;;;;;7.73;1.83;;;;;;;;;;6068616;29;20305;-69
2023/12/20 14:38:05;;;;;;;3.03;1.57;;;;;;;;;;6068459;29;20305;-70
2023/12/20 14:41:09;;;;;;;3.07;1.60;;;;;;;;;;6069130;29;20238;-70
2023/12/20 14:44:15;;;;;;;1.97;1.80;;;;;;;;;;6068238;29;20310;-70
2023/12/20 14:47:19;;;;;;;3.13;1.73;;;;;;;;;;6068033;29;20568;-70
2023/12/20 14:50:23;;;;;;;2.73;1.60;;;;;;;;;;6048609;29;20325;-70
2023/12/20 14:53:27;;;;;;;1.97;1.83;;;;;;;;;;6050007;29;20304;-69
2023/12/20 14:56:31;;;;;;;2.47;1.60;;;;;;;;;;6051049;29;20317;-69
2023/12/20 14:59:37;;;;;;;4.10;1.90;;;;;;;;;;6050198;29;20317;-69
2023/12/20 15:02:41;;;;;;;1.87;1.60;;;;;;;;;;6049788;29;20305;-69
2023/12/20 15:05:47;;;;;;;3.60;2.07;;;;;;;;;;6050958;29;20305;-69
2023/12/20 15:08:56;;;;;;;3.30;1.90;;;;;;;;;;6050776;29;20289;-70
2023/12/20 15:12:02;;;;;;;4.63;2.17;;;;;;;;;;6070440;29;20310;-70
2023/12/20 15:15:13;;;;;;;6.07;2.03;;;;;;;;;;6072790;29;20308;-69
2023/12/20 15:18:17;;;;;;;1.93;1.80;;;;;;;;;;6071225;29;20304;-69
2023/12/20 15:21:29;;;;;;;1.90;1.80;;;;;;;;;;6073386;29;20297;-70
2023/12/20 15:24:38;;;;;;;4.63;2.10;;;;;;;;;;6072397;29;20296;-69
2023/12/20 15:27:42;;;;;;;8.97;3.70;;;;;;;;;;6072692;29;20306;-69
2023/12/20 15:30:48;;;;;;;3.50;2.50;;;;;;;;;;6072960;29;20644;-70
2023/12/20 15:33:52;;;;;;;4.47;2.40;;;;;;;;;;6072388;29;20300;-70
2023/12/20 15:36:56;;;;;;;4.23;2.53;;;;;;;;;;6072974;29;20296;-70
2023/12/20 15:40:00;;;;;;;4.23;2.00;;;;;;;;;;6072293;29;20383;-68
2023/12/20 15:43:09;;;;;;;2.03;1.80;;;;;;;;;;6071903;29;20301;-68
2023/12/20 15:46:14;;;;;;;5.20;2.00;;;;;;;;;;6072881;29;20301;-69
2023/12/20 15:49:19;;;;;;;5.73;2.40;;;;;;;;;;6058441;29;20570;-69
2023/12/20 15:52:23;;;;;;;4.20;2.10;;;;;;;;;;6049503;29;20298;-69
2023/12/20 15:55:27;;;;;;;4.47;2.00;;;;;;;;;;6047736;29;20610;-68
2023/12/20 15:58:31;;;;;;;2.73;2.07;;;;;;;;;;6047732;29;20301;-69
2023/12/20 16:01:37;;;;;;;3.30;2.30;;;;;;;;;;6048401;29;20306;-68
2023/12/20 16:04:41;;;;;;;4.20;2.57;;;;;;;;;;6063161;29;20507;-69
2023/12/20 16:07:45;;;;;;;4.63;2.30;;;;;;;;;;6070701;29;20301;-69
2023/12/20 16:10:49;;;;;;;5.20;2.40;;;;;;;;;;6060906;29;20296;-69
2023/12/20 16:13:55;;;;;;;3.00;2.20;;;;;;;;;;6048895;29;20289;-69
2023/12/20 16:17:01;;;;;;;5.70;2.20;;;;;;;;;;6054960;29;20321;-69
2023/12/20 16:20:10;;;;;;;2.07;1.90;;;;;;;;;;6071761;29;20304;-69
2023/12/20 16:23:15;;;;;;;2.53;2.07;;;;;;;;;;6071072;29;20312;-70
2023/12/20 16:26:19;;;;;;;4.87;2.13;;;;;;;;;;6071744;29;20289;-69
2023/12/20 16:29:23;;;;;;;4.00;2.10;;;;;;;;;;6071164;29;20297;-70
2023/12/20 16:32:28;;;;;;;2.17;2.10;;;;;;;;;;6071396;29;20456;-70
2023/12/20 16:35:32;;;;;;;5.40;2.57;;;;;;;;;;6070913;29;20293;-70
2023/12/20 16:38:37;;;;;;;2.47;2.07;;;;;;;;;;6070914;29;20296;-69
2023/12/20 16:41:41;;;;;;;4.00;2.10;;;;;;;;;;6071450;29;20316;-69
2023/12/20 16:44:45;;;;;;;3.70;2.30;;;;;;;;;;6070290;29;20288;-69
2023/12/20 16:47:50;;;;;;;5.03;2.70;;;;;;;;;;6071168;29;20300;-70
2023/12/20 16:50:54;;;;;;;3.43;2.73;;;;;;;;;;6070987;29;20509;-70
2023/12/20 16:53:58;;;;;;;3.70;2.23;;;;;;;;;;6070280;29;20309;-70
2023/12/20 16:57:02;;;;;;;5.37;2.30;;;;;;;;;;6071010;29;20301;-69
2023/12/20 17:00:07;;;;;;;2.93;2.30;;;;;;;;;;6070245;29;20297;-68
2023/12/20 17:03:13;;;;;;;2.27;2.17;;;;;;;;;;6070685;29;20301;-70
2023/12/20 17:06:17;;;;;;;4.30;2.67;;;;;;;;;;6047529;29;20309;-69
2023/12/20 17:09:21;;;;;;;4.03;2.33;;;;;;;;;;6047044;29;20305;-69
2023/12/20 17:12:25;;;;;;;2.77;2.30;;;;;;;;;;6047588;29;20305;-69
2023/12/20 17:15:29;;;;;;;2.37;2.17;;;;;;;;;;6047059;29;20320;-69
2023/12/20 17:18:35;;;;;;;3.03;2.53;;;;;;;;;;6064958;29;20577;-66
2023/12/20 17:21:39;;;;;;;2.37;2.17;;;;;;;;;;6068916;29;20619;-67
2023/12/20 17:24:43;;;;;;;3.10;2.33;;;;;;;;;;6069693;29;20297;-68
2023/12/20 17:27:47;;;;;;;3.53;2.10;;;;;;;;;;6069734;29;20388;-67
2023/12/20 17:30:51;;;;;;;5.10;2.50;;;;;;;;;;6068791;29;20316;-67
2023/12/20 17:33:57;;;;;;;3.93;2.40;;;;;;;;;;6069140;29;20301;-68
2023/12/20 17:37:01;;;;;;;3.90;2.80;;;;;;;;;;6069517;29;20312;-68
2023/12/20 17:40:06;;;;;;;2.60;2.00;;;;;;;;;;6069117;29;20297;-68
2023/12/20 17:43:11;;;;;;;5.43;2.73;;;;;;;;;;6069404;29;20300;-69
2023/12/20 17:46:15;;;;;;;7.53;2.50;;;;;;;;;;6069639;29;20531;-69
2023/12/20 17:49:20;;;;;;;5.63;2.70;;;;;;;;;;6068511;29;20928;-67
2023/12/20 17:52:26;;;;;;;7.10;2.90;;;;;;;;;;6069702;29;20478;-67
2023/12/20 17:55:30;;;;;;;5.10;2.70;;;;;;;;;;6068894;29;20309;-68
2023/12/20 17:58:34;;;;;;;3.47;2.30;;;;;;;;;;6080848;29;20304;-69
2023/12/20 18:01:38;;;;;;;3.13;2.40;;;;;;;;;;6052119;29;20310;-68
2023/12/20 18:04:44;;;;;;;3.07;2.43;;;;;;;;;;6060471;29;20301;-68
2023/12/20 18:07:50;;;;;;;7.20;2.93;;;;;;;;;;6045209;29;20616;-68
2023/12/20 18:10:54;;;;;;;2.77;2.67;;;;;;;;;;6057670;29;20310;-68
2023/12/20 18:13:57;;;;;;;4.07;2.87;;;;;;;;;;6034577;29;20341;-68
2023/12/20 18:17:01;;;;;;;3.13;2.77;;;;;;;;;;6050865;29;20490;-70
2023/12/20 18:20:08;;;;;;;3.30;3.10;;;;;;;;;;6053612;29;20321;-69
2023/12/20 18:23:13;;;;;;;3.17;2.50;;;;;;;;;;6044220;29;20294;-68
2023/12/20 18:26:16;;;;;;;2.93;2.70;;;;;;;;;;6043708;29;20316;-68